Schillplate — ZDJJ8 — position and weather

sailwx.info

Track history (hours):
 
Tides and Currents Weather Stations Pressure Air Temp Water Temp Dewpoint Dewpoint Depression Visibility Wind Speed Wind Dir Waves Ship Positions

Schillplate

Last reported at 2016-Jan-27 09:18 UTC. Time now 2016-Feb-13 15:13 UTC.
Position N 37°14' E 005°57'.
Warning: this ship's position is 17 days out of date.

Length 86 m; draft 5 m.

Type: Cargo ship. MMSI: 236111603.

Date/timePositionNaut miles runAvg speedWind from/ knotsBaromVisibWave heightAir tempDewpointWater temp
2016-Jan-27 09:18N 37°14' E 005°57'1010.3
2016-Jan-27 08:20N 37°13' E 005°44'40410.6
2016-Jan-25 18:08N 36°18' W 002°36'12311.2
2016-Jan-25 07:11N 35°57' W 005°06'711.0
2016-Jan-25 06:34N 35°55' W 005°14'4 3.5
2016-Jan-25 05:31N 35°54' W 005°18'0 0.0
2016-Jan-25 04:31N 35°54' W 005°18'0 0.0
2016-Jan-25 03:31N 35°54' W 005°18'0 0.0
2016-Jan-25 02:31N 35°54' W 005°18'1 0.8
2016-Jan-25 01:33N 35°54' W 005°19'7 6.8
2016-Jan-25 00:33N 35°57' W 005°27'10 9.3
2016-Jan-24 23:28N 35°54' W 005°39'101 9.2
2016-Jan-24 12:32N 36°12' W 007°42'1010.4
2016-Jan-24 11:33N 36°15' W 007°54'1010.0
2016-Jan-24 10:33N 36°17' W 008°06'1010.1
2016-Jan-24 09:32N 36°20' W 008°18'1110.6
2016-Jan-24 08:31N 36°24' W 008°31'9 9.1
2016-Jan-24 07:33N 36°26' W 008°41'1010.0
2016-Jan-24 06:33N 36°29' W 008°53'1110.6
2016-Jan-24 05:31N 36°32' W 009°06'10 9.9
2016-Jan-24 04:31N 36°35' W 009°18'10 9.9
2016-Jan-24 03:31N 36°42' W 009°26'10 9.6
2016-Jan-24 02:31N 36°50' W 009°33'1110.1
2016-Jan-24 01:25N 37°01' W 009°36'910.1
2016-Jan-24 00:31N 37°09' W 009°39'10 9.9
2016-Jan-23 23:31N 37°19' W 009°42'1010.0
2016-Jan-23 22:31N 37°29' W 009°45'9 9.0
2016-Jan-23 21:32N 37°37' W 009°47'9 9.5
2016-Jan-23 20:33N 37°47' W 009°50'1110.3
2016-Jan-23 19:31N 37°57' W 009°53'1010.0
2016-Jan-23 18:31N 38°07' W 009°56'9 9.1
2016-Jan-23 17:33N 38°15' W 009°59'1010.0
2016-Jan-23 16:33N 38°25' W 010°01'10 9.9
2016-Jan-23 15:33N 38°35' W 010°04'1010.0
2016-Jan-23 14:33N 38°45' W 010°06'1010.0
2016-Jan-23 13:33N 38°55' W 010°06'10 9.8
2016-Jan-23 12:33N 39°04' W 010°06'1010.0
2016-Jan-23 11:34N 39°14' W 010°06'1110.4
2016-Jan-23 10:33N 39°25' W 010°06'1616.3
2016-Jan-23 09:33N 39°41' W 010°06'5 5.2
2016-Jan-23 08:34N 39°46' W 010°06'1110.2
2016-Jan-23 07:28N 39°57' W 010°06'1010.2
2016-Jan-23 06:28N 40°08' W 010°06'910.5
2016-Jan-23 05:33N 40°17' W 010°06'10 9.8
2016-Jan-23 04:31N 40°27' W 010°06'1310.1
2016-Jan-23 03:11N 40°41' W 010°06'710.6
2016-Jan-23 02:32N 40°48' W 010°06'1010.0
2016-Jan-23 01:32N 40°58' W 010°06'10 9.7
2016-Jan-23 00:32N 41°07' W 010°06'9 8.8
2016-Jan-22 23:32N 41°16' W 010°06'10 9.7
2016-Jan-22 22:32N 41°26' W 010°06'10 9.7
2016-Jan-22 21:32N 41°36' W 010°06'10 9.9
2016-Jan-22 20:32N 41°46' W 010°06'1010.2
2016-Jan-22 19:32N 41°56' W 010°06'  
2016-Jan-19 14:22N 50°34' E 000°17'910.9
2016-Jan-19 13:31N 50°36' E 000°31'1111.4
2016-Jan-19 12:33N 50°42' E 000°45'2311.4
2016-Jan-19 10:33N 50°57' E 001°14'1010.4
2016-Jan-19 09:33N 51°03' E 001°26'10 9.6
2016-Jan-19 08:33N 51°10' E 001°38'9 9.4
2016-Jan-19 07:33N 51°17' E 001°48'1010.4
2016-Jan-19 06:33N 51°26' E 001°55'1111.3
2016-Jan-19 05:33N 51°35' E 002°07'3912.2
2016-Jan-19 02:22N 52°04' E 002°49'1011.7
2016-Jan-19 01:31N 52°11' E 002°59'1111.0
2016-Jan-19 00:30N 52°20' E 003°10'1010.3
2016-Jan-18 23:32N 52°29' E 003°19'10 9.8
2016-Jan-18 22:31N 52°37' E 003°28'10 9.6
2016-Jan-18 21:31N 52°44' E 003°38'10 9.6
2016-Jan-18 20:32N 52°51' E 003°49'1110.4
2016-Jan-18 19:26N 52°59' E 004°02'5110.4
2016-Jan-18 14:33N 53°34' E 005°04'10 9.7
2016-Jan-18 13:33N 53°37' E 005°19'9 9.4
2016-Jan-18 12:33N 53°40' E 005°34'10 9.7
2016-Jan-18 11:32N 53°43' E 005°50'1010.2
2016-Jan-18 10:33N 53°46' E 006°06'1111.3
2016-Jan-18 09:33N 53°50' E 006°24'1211.7
2016-Jan-18 08:33N 53°53' E 006°43'1111.5
2016-Jan-18 07:33N 53°56' E 007°02'1111.2
2016-Jan-18 06:33N 53°58' E 007°21'1010.6
2016-Jan-18 05:33N 54°01' E 007°38'1010.0
2016-Jan-18 04:33N 54°01' E 007°55'10 9.8
2016-Jan-18 03:33N 54°01' E 008°12'9 9.1
2016-Jan-18 02:33N 53°59' E 008°27'9 8.7
2016-Jan-18 01:33N 53°56' E 008°40'1111.1
2016-Jan-18 00:33N 53°51' E 008°57'7 7.3
2016-Jan-17 23:33N 53°54' E 009°09'2 1.6
2016-Jan-17 22:31N 53°55' E 009°11'0 0.0
2016-Jan-17 21:31N 53°55' E 009°11'3 3.6
2016-Jan-17 20:33N 53°57' E 009°15'15 6.2
2016-Jan-17 18:06N 54°11' E 009°28'6 8.3
2016-Jan-17 17:24N 54°14' E 009°36'7 7.3
2016-Jan-17 16:29N 54°19' E 009°43'6 6.6
2016-Jan-17 15:33N 54°22' E 009°52'6 6.5
2016-Jan-17 14:33N 54°22' E 010°04'3 2.8
2016-Jan-17 13:33N 54°22' E 010°08'1 1.4
2016-Jan-17 12:33N 54°22' E 010°11'2010.2
2016-Jan-17 10:33N 54°35' E 010°39'1111.3
2016-Jan-17 09:33N 54°36' E 010°58'  
Track history (hours):
 
Tides and Currents Weather Stations Pressure Air Temp Water Temp Dewpoint Dewpoint Depression Visibility Wind Speed Wind Dir Waves Ship Positions

Schillplate

Last reported at 2016-Jan-27 09:18 UTC. Time now 2016-Feb-13 15:13 UTC.
Position N 37°14' E 005°57'.
Warning: this ship's position is 17 days out of date.

Length 86 m; draft 5 m.

Type: Cargo ship. MMSI: 236111603.

Date/timePositionNaut miles runAvg speedWind from/ knotsBaromVisibWave heightAir tempDewpointWater temp
2016-Jan-27 09:18N 37°14' E 005°57'1010.3
2016-Jan-27 08:20N 37°13' E 005°44'40410.6
2016-Jan-25 18:08N 36°18' W 002°36'12311.2
2016-Jan-25 07:11N 35°57' W 005°06'711.0
2016-Jan-25 06:34N 35°55' W 005°14'4 3.5
2016-Jan-25 05:31N 35°54' W 005°18'0 0.0
2016-Jan-25 04:31N 35°54' W 005°18'0 0.0
2016-Jan-25 03:31N 35°54' W 005°18'0 0.0
2016-Jan-25 02:31N 35°54' W 005°18'1 0.8
2016-Jan-25 01:33N 35°54' W 005°19'7 6.8
2016-Jan-25 00:33N 35°57' W 005°27'10 9.3
2016-Jan-24 23:28N 35°54' W 005°39'101 9.2
2016-Jan-24 12:32N 36°12' W 007°42'1010.4
2016-Jan-24 11:33N 36°15' W 007°54'1010.0
2016-Jan-24 10:33N 36°17' W 008°06'1010.1
2016-Jan-24 09:32N 36°20' W 008°18'1110.6
2016-Jan-24 08:31N 36°24' W 008°31'9 9.1
2016-Jan-24 07:33N 36°26' W 008°41'1010.0
2016-Jan-24 06:33N 36°29' W 008°53'1110.6
2016-Jan-24 05:31N 36°32' W 009°06'10 9.9
2016-Jan-24 04:31N 36°35' W 009°18'10 9.9
2016-Jan-24 03:31N 36°42' W 009°26'10 9.6
2016-Jan-24 02:31N 36°50' W 009°33'1110.1
2016-Jan-24 01:25N 37°01' W 009°36'910.1
2016-Jan-24 00:31N 37°09' W 009°39'10 9.9
2016-Jan-23 23:31N 37°19' W 009°42'1010.0
2016-Jan-23 22:31N 37°29' W 009°45'9 9.0
2016-Jan-23 21:32N 37°37' W 009°47'9 9.5
2016-Jan-23 20:33N 37°47' W 009°50'1110.3
2016-Jan-23 19:31N 37°57' W 009°53'1010.0
2016-Jan-23 18:31N 38°07' W 009°56'9 9.1
2016-Jan-23 17:33N 38°15' W 009°59'1010.0
2016-Jan-23 16:33N 38°25' W 010°01'10 9.9
2016-Jan-23 15:33N 38°35' W 010°04'1010.0
2016-Jan-23 14:33N 38°45' W 010°06'1010.0
2016-Jan-23 13:33N 38°55' W 010°06'10 9.8
2016-Jan-23 12:33N 39°04' W 010°06'1010.0
2016-Jan-23 11:34N 39°14' W 010°06'1110.4
2016-Jan-23 10:33N 39°25' W 010°06'1616.3
2016-Jan-23 09:33N 39°41' W 010°06'5 5.2
2016-Jan-23 08:34N 39°46' W 010°06'1110.2
2016-Jan-23 07:28N 39°57' W 010°06'1010.2
2016-Jan-23 06:28N 40°08' W 010°06'910.5
2016-Jan-23 05:33N 40°17' W 010°06'10 9.8
2016-Jan-23 04:31N 40°27' W 010°06'1310.1
2016-Jan-23 03:11N 40°41' W 010°06'710.6
2016-Jan-23 02:32N 40°48' W 010°06'1010.0
2016-Jan-23 01:32N 40°58' W 010°06'10 9.7
2016-Jan-23 00:32N 41°07' W 010°06'9 8.8
2016-Jan-22 23:32N 41°16' W 010°06'10 9.7
2016-Jan-22 22:32N 41°26' W 010°06'10 9.7
2016-Jan-22 21:32N 41°36' W 010°06'10 9.9
2016-Jan-22 20:32N 41°46' W 010°06'1010.2
2016-Jan-22 19:32N 41°56' W 010°06'  
2016-Jan-19 14:22N 50°34' E 000°17'910.9
2016-Jan-19 13:31N 50°36' E 000°31'1111.4
2016-Jan-19 12:33N 50°42' E 000°45'2311.4
2016-Jan-19 10:33N 50°57' E 001°14'1010.4
2016-Jan-19 09:33N 51°03' E 001°26'10 9.6
2016-Jan-19 08:33N 51°10' E 001°38'9 9.4
2016-Jan-19 07:33N 51°17' E 001°48'1010.4
2016-Jan-19 06:33N 51°26' E 001°55'1111.3
2016-Jan-19 05:33N 51°35' E 002°07'3912.2
2016-Jan-19 02:22N 52°04' E 002°49'1011.7
2016-Jan-19 01:31N 52°11' E 002°59'1111.0
2016-Jan-19 00:30N 52°20' E 003°10'1010.3
2016-Jan-18 23:32N 52°29' E 003°19'10 9.8
2016-Jan-18 22:31N 52°37' E 003°28'10 9.6
2016-Jan-18 21:31N 52°44' E 003°38'10 9.6
2016-Jan-18 20:32N 52°51' E 003°49'1110.4
2016-Jan-18 19:26N 52°59' E 004°02'5110.4
2016-Jan-18 14:33N 53°34' E 005°04'10 9.7
2016-Jan-18 13:33N 53°37' E 005°19'9 9.4
2016-Jan-18 12:33N 53°40' E 005°34'10 9.7
2016-Jan-18 11:32N 53°43' E 005°50'1010.2
2016-Jan-18 10:33N 53°46' E 006°06'1111.3
2016-Jan-18 09:33N 53°50' E 006°24'1211.7
2016-Jan-18 08:33N 53°53' E 006°43'1111.5
2016-Jan-18 07:33N 53°56' E 007°02'1111.2
2016-Jan-18 06:33N 53°58' E 007°21'1010.6
2016-Jan-18 05:33N 54°01' E 007°38'1010.0
2016-Jan-18 04:33N 54°01' E 007°55'10 9.8
2016-Jan-18 03:33N 54°01' E 008°12'9 9.1
2016-Jan-18 02:33N 53°59' E 008°27'9 8.7
2016-Jan-18 01:33N 53°56' E 008°40'1111.1
2016-Jan-18 00:33N 53°51' E 008°57'7 7.3
2016-Jan-17 23:33N 53°54' E 009°09'2 1.6
2016-Jan-17 22:31N 53°55' E 009°11'0 0.0
2016-Jan-17 21:31N 53°55' E 009°11'3 3.6
2016-Jan-17 20:33N 53°57' E 009°15'15 6.2
2016-Jan-17 18:06N 54°11' E 009°28'6 8.3
2016-Jan-17 17:24N 54°14' E 009°36'7 7.3
2016-Jan-17 16:29N 54°19' E 009°43'6 6.6
2016-Jan-17 15:33N 54°22' E 009°52'6 6.5
2016-Jan-17 14:33N 54°22' E 010°04'3 2.8
2016-Jan-17 13:33N 54°22' E 010°08'1 1.4
2016-Jan-17 12:33N 54°22' E 010°11'2010.2
2016-Jan-17 10:33N 54°35' E 010°39'1111.3
2016-Jan-17 09:33N 54°36' E 010°58'  

Dump ship's entire track history